sensor_id;sensor_type;location;lat;lon;timestamp;pressure;altitude;pressure_sealevel;temperature;humidity
74161;BME280;62512;-46.434;168.382;2022-09-01T00:00:45;102173;;;unknown;56.55
74161;BME280;62512;-46.434;168.382;2022-09-01T00:01:46;102179;;;unknown;56.36
74161;BME280;62512;-46.434;168.382;2022-09-01T00:02:45;102174;;;unknown;56.37
74161;BME280;62512;-46.434;168.382;2022-09-01T00:03:45;102175;;;unknown;56.57
74161;BME280;62512;-46.434;168.382;2022-09-01T00:04:45;102175;;;unknown;56.54
74161;BME280;62512;-46.434;168.382;2022-09-01T00:05:45;102174;;;unknown;56.41
74161;BME280;62512;-46.434;168.382;2022-09-01T00:06:45;102176;;;unknown;56.14
74161;BME280;62512;-46.434;168.382;2022-09-01T00:07:45;102174;;;unknown;56.10
74161;BME280;62512;-46.434;168.382;2022-09-01T00:08:44;102173;;;unknown;55.93
74161;BME280;62512;-46.434;168.382;2022-09-01T00:09:44;102177;;;unknown;55.74
74161;BME280;62512;-46.434;168.382;2022-09-01T00:11:45;102169;;;unknown;56.14
74161;BME280;62512;-46.434;168.382;2022-09-01T00:12:44;102168;;;unknown;56.22
74161;BME280;62512;-46.434;168.382;2022-09-01T00:13:45;102168;;;unknown;56.15
74161;BME280;62512;-46.434;168.382;2022-09-01T00:14:44;102170;;;unknown;55.99
74161;BME280;62512;-46.434;168.382;2022-09-01T00:15:45;102166;;;unknown;56.04
74161;BME280;62512;-46.434;168.382;2022-09-01T00:16:44;102165;;;unknown;56.00
74161;BME280;62512;-46.434;168.382;2022-09-01T00:17:44;102161;;;unknown;55.78
74161;BME280;62512;-46.434;168.382;2022-09-01T00:18:46;102158;;;unknown;55.39
74161;BME280;62512;-46.434;168.382;2022-09-01T00:19:44;102157;;;unknown;55.36
74161;BME280;62512;-46.434;168.382;2022-09-01T00:20:44;102155;;;unknown;55.41
74161;BME280;62512;-46.434;168.382;2022-09-01T00:22:44;102148;;;unknown;55.34
74161;BME280;62512;-46.434;168.382;2022-09-01T00:23:45;102148;;;unknown;55.38
74161;BME280;62512;-46.434;168.382;2022-09-01T00:24:44;102144;;;unknown;55.19
74161;BME280;62512;-46.434;168.382;2022-09-01T00:25:45;102145;;;unknown;55.11
74161;BME280;62512;-46.434;168.382;2022-09-01T00:26:45;102144;;;unknown;54.92
74161;BME280;62512;-46.434;168.382;2022-09-01T00:27:45;102142;;;unknown;54.67
74161;BME280;62512;-46.434;168.382;2022-09-01T00:28:44;102136;;;unknown;54.18
74161;BME280;62512;-46.434;168.382;2022-09-01T00:29:44;102136;;;unknown;54.18
74161;BME280;62512;-46.434;168.382;2022-09-01T00:30:44;102134;;;unknown;53.66
74161;BME280;62512;-46.434;168.382;2022-09-01T00:32:45;102134;;;unknown;53.44
74161;BME280;62512;-46.434;168.382;2022-09-01T00:33:45;102131;;;unknown;53.41
74161;BME280;62512;-46.434;168.382;2022-09-01T00:34:44;102130;;;unknown;53.64
74161;BME280;62512;-46.434;168.382;2022-09-01T00:35:44;102134;;;unknown;54.23
74161;BME280;62512;-46.434;168.382;2022-09-01T00:36:44;102132;;;unknown;54.11
74161;BME280;62512;-46.434;168.382;2022-09-01T00:37:44;102129;;;unknown;54.45
74161;BME280;62512;-46.434;168.382;2022-09-01T00:38:45;102127;;;unknown;54.49
74161;BME280;62512;-46.434;168.382;2022-09-01T00:39:44;102125;;;unknown;54.52
74161;BME280;62512;-46.434;168.382;2022-09-01T00:40:44;102123;;;unknown;54.37
74161;BME280;62512;-46.434;168.382;2022-09-01T00:41:45;102118;;;unknown;54.34
74161;BME280;62512;-46.434;168.382;2022-09-01T00:42:44;102122;;;unknown;54.54
74161;BME280;62512;-46.434;168.382;2022-09-01T00:43:45;102124;;;unknown;54.60
74161;BME280;62512;-46.434;168.382;2022-09-01T00:44:44;102120;;;unknown;53.94
74161;BME280;62512;-46.434;168.382;2022-09-01T00:45:45;102123;;;unknown;54.07
74161;BME280;62512;-46.434;168.382;2022-09-01T00:47:45;102123;;;unknown;54.33
74161;BME280;62512;-46.434;168.382;2022-09-01T00:49:45;102124;;;unknown;54.09
74161;BME280;62512;-46.434;168.382;2022-09-01T00:50:45;102125;;;unknown;54.26
74161;BME280;62512;-46.434;168.382;2022-09-01T00:52:45;102122;;;unknown;54.13
74161;BME280;62512;-46.434;168.382;2022-09-01T00:53:45;102120;;;unknown;53.67
74161;BME280;62512;-46.434;168.382;2022-09-01T00:54:45;102119;;;unknown;53.88
74161;BME280;62512;-46.434;168.382;2022-09-01T00:55:44;102119;;;unknown;54.35
74161;BME280;62512;-46.434;168.382;2022-09-01T00:56:44;102115;;;unknown;53.70
74161;BME280;62512;-46.434;168.382;2022-09-01T00:57:44;102115;;;unknown;53.70
74161;BME280;62512;-46.434;168.382;2022-09-01T00:58:44;102111;;;unknown;54.31
74161;BME280;62512;-46.434;168.382;2022-09-01T00:59:47;102108;;;unknown;54.35
74161;BME280;62512;-46.434;168.382;2022-09-01T01:00:44;102108;;;unknown;54.36
74161;BME280;62512;-46.434;168.382;2022-09-01T01:01:44;102105;;;unknown;54.01
74161;BME280;62512;-46.434;168.382;2022-09-01T01:02:45;102105;;;unknown;54.72
74161;BME280;62512;-46.434;168.382;2022-09-01T01:03:44;102106;;;unknown;54.43
74161;BME280;62512;-46.434;168.382;2022-09-01T01:04:44;102099;;;unknown;54.44
74161;BME280;62512;-46.434;168.382;2022-09-01T01:06:45;102093;;;unknown;54.46
74161;BME280;62512;-46.434;168.382;2022-09-01T01:07:44;102096;;;unknown;54.80
74161;BME280;62512;-46.434;168.382;2022-09-01T01:08:45;102096;;;unknown;54.98
74161;BME280;62512;-46.434;168.382;2022-09-01T01:09:44;102097;;;unknown;55.00
74161;BME280;62512;-46.434;168.382;2022-09-01T01:10:44;102093;;;unknown;55.23
74161;BME280;62512;-46.434;168.382;2022-09-01T01:11:44;102092;;;unknown;55.33
74161;BME280;62512;-46.434;168.382;2022-09-01T01:12:44;102092;;;unknown;55.30
74161;BME280;62512;-46.434;168.382;2022-09-01T01:13:47;102089;;;unknown;55.53
74161;BME280;62512;-46.434;168.382;2022-09-01T01:14:45;102089;;;unknown;55.27
74161;BME280;62512;-46.434;168.382;2022-09-01T01:15:45;102087;;;unknown;55.23
74161;BME280;62512;-46.434;168.382;2022-09-01T01:16:45;102081;;;unknown;55.29
74161;BME280;62512;-46.434;168.382;2022-09-01T01:17:44;102083;;;unknown;55.10
74161;BME280;62512;-46.434;168.382;2022-09-01T01:18:44;102079;;;unknown;55.01
74161;BME280;62512;-46.434;168.382;2022-09-01T01:19:45;102081;;;unknown;54.98
74161;BME280;62512;-46.434;168.382;2022-09-01T01:20:44;102079;;;unknown;55.06
74161;BME280;62512;-46.434;168.382;2022-09-01T01:21:44;102075;;;unknown;55.27
74161;BME280;62512;-46.434;168.382;2022-09-01T01:22:46;102075;;;unknown;55.27
74161;BME280;62512;-46.434;168.382;2022-09-01T01:23:47;102073;;;unknown;55.02
74161;BME280;62512;-46.434;168.382;2022-09-01T01:24:45;102075;;;unknown;55.05
74161;BME280;62512;-46.434;168.382;2022-09-01T01:27:44;102070;;;unknown;54.85
74161;BME280;62512;-46.434;168.382;2022-09-01T01:28:44;102074;;;unknown;54.90
74161;BME280;62512;-46.434;168.382;2022-09-01T01:29:45;102071;;;unknown;54.85
74161;BME280;62512;-46.434;168.382;2022-09-01T01:30:45;102067;;;unknown;54.62
74161;BME280;62512;-46.434;168.382;2022-09-01T01:31:45;102067;;;unknown;54.43
74161;BME280;62512;-46.434;168.382;2022-09-01T01:32:45;102070;;;unknown;54.30
74161;BME280;62512;-46.434;168.382;2022-09-01T01:33:46;102070;;;unknown;53.99
74161;BME280;62512;-46.434;168.382;2022-09-01T01:34:44;102072;;;unknown;53.80
74161;BME280;62512;-46.434;168.382;2022-09-01T01:35:44;102067;;;unknown;54.10
74161;BME280;62512;-46.434;168.382;2022-09-01T01:36:45;102064;;;unknown;54.51
74161;BME280;62512;-46.434;168.382;2022-09-01T01:38:47;102063;;;unknown;54.69
74161;BME280;62512;-46.434;168.382;2022-09-01T01:39:44;102064;;;unknown;54.73
74161;BME280;62512;-46.434;168.382;2022-09-01T01:40:45;102062;;;unknown;53.89
74161;BME280;62512;-46.434;168.382;2022-09-01T01:41:45;102063;;;unknown;54.26
74161;BME280;62512;-46.434;168.382;2022-09-01T01:42:45;102060;;;unknown;54.26
74161;BME280;62512;-46.434;168.382;2022-09-01T01:43:45;102059;;;unknown;54.12
74161;BME280;62512;-46.434;168.382;2022-09-01T01:44:44;102056;;;unknown;54.62
74161;BME280;62512;-46.434;168.382;2022-09-01T01:45:45;102056;;;unknown;54.76
74161;BME280;62512;-46.434;168.382;2022-09-01T01:46:46;102054;;;unknown;54.62
74161;BME280;62512;-46.434;168.382;2022-09-01T01:47:46;102052;;;unknown;54.46
74161;BME280;62512;-46.434;168.382;2022-09-01T01:48:44;102053;;;unknown;54.27
74161;BME280;62512;-46.434;168.382;2022-09-01T01:49:44;102056;;;unknown;53.97
74161;BME280;62512;-46.434;168.382;2022-09-01T01:50:45;102056;;;unknown;53.97
74161;BME280;62512;-46.434;168.382;2022-09-01T01:51:45;102052;;;unknown;53.74
74161;BME280;62512;-46.434;168.382;2022-09-01T01:52:44;102050;;;unknown;53.91
74161;BME280;62512;-46.434;168.382;2022-09-01T01:54:44;102052;;;unknown;54.32
74161;BME280;62512;-46.434;168.382;2022-09-01T01:55:45;102049;;;unknown;54.55
74161;BME280;62512;-46.434;168.382;2022-09-01T01:56:44;102047;;;unknown;54.46
74161;BME280;62512;-46.434;168.382;2022-09-01T01:57:45;102045;;;unknown;54.28
74161;BME280;62512;-46.434;168.382;2022-09-01T01:58:45;102045;;;unknown;54.38
74161;BME280;62512;-46.434;168.382;2022-09-01T01:59:44;102044;;;unknown;54.46
74161;BME280;62512;-46.434;168.382;2022-09-01T02:00:45;102043;;;unknown;54.15
74161;BME280;62512;-46.434;168.382;2022-09-01T02:01:44;102047;;;unknown;54.12
74161;BME280;62512;-46.434;168.382;2022-09-01T02:02:45;102042;;;unknown;54.67
74161;BME280;62512;-46.434;168.382;2022-09-01T02:03:44;102043;;;unknown;55.03
74161;BME280;62512;-46.434;168.382;2022-09-01T02:04:44;102043;;;unknown;55.25
74161;BME280;62512;-46.434;168.382;2022-09-01T02:05:45;102041;;;unknown;56.03
74161;BME280;62512;-46.434;168.382;2022-09-01T02:06:45;102043;;;unknown;55.75
74161;BME280;62512;-46.434;168.382;2022-09-01T02:07:44;102040;;;unknown;56.09
74161;BME280;62512;-46.434;168.382;2022-09-01T02:08:44;102040;;;unknown;56.23
74161;BME280;62512;-46.434;168.382;2022-09-01T02:09:44;102042;;;unknown;56.70
74161;BME280;62512;-46.434;168.382;2022-09-01T02:10:49;102042;;;unknown;57.64
74161;BME280;62512;-46.434;168.382;2022-09-01T02:11:44;102042;;;unknown;57.64
74161;BME280;62512;-46.434;168.382;2022-09-01T02:12:44;102043;;;unknown;57.87
74161;BME280;62512;-46.434;168.382;2022-09-01T02:13:44;102043;;;unknown;57.73
74161;BME280;62512;-46.434;168.382;2022-09-01T02:14:44;102041;;;unknown;57.97
74161;BME280;62512;-46.434;168.382;2022-09-01T02:15:45;102040;;;unknown;58.77
74161;BME280;62512;-46.434;168.382;2022-09-01T02:16:44;102043;;;unknown;58.54
74161;BME280;62512;-46.434;168.382;2022-09-01T02:17:44;102036;;;unknown;58.47
74161;BME280;62512;-46.434;168.382;2022-09-01T02:18:45;102032;;;unknown;58.64
74161;BME280;62512;-46.434;168.382;2022-09-01T02:19:44;102029;;;unknown;58.31
74161;BME280;62512;-46.434;168.382;2022-09-01T02:20:45;102023;;;unknown;58.46
74161;BME280;62512;-46.434;168.382;2022-09-01T02:21:45;102021;;;unknown;58.81
74161;BME280;62512;-46.434;168.382;2022-09-01T02:22:44;102026;;;unknown;59.21
74161;BME280;62512;-46.434;168.382;2022-09-01T02:23:45;102028;;;unknown;59.31
74161;BME280;62512;-46.434;168.382;2022-09-01T02:24:44;102033;;;unknown;59.51
74161;BME280;62512;-46.434;168.382;2022-09-01T02:25:44;102029;;;unknown;59.50
74161;BME280;62512;-46.434;168.382;2022-09-01T02:26:44;102031;;;unknown;60.01
74161;BME280;62512;-46.434;168.382;2022-09-01T02:27:44;102029;;;unknown;60.01
74161;BME280;62512;-46.434;168.382;2022-09-01T02:28:45;102026;;;unknown;59.97
74161;BME280;62512;-46.434;168.382;2022-09-01T02:29:44;102022;;;unknown;59.72
74161;BME280;62512;-46.434;168.382;2022-09-01T02:30:45;102015;;;unknown;60.12
74161;BME280;62512;-46.434;168.382;2022-09-01T02:31:45;102015;;;unknown;60.12
74161;BME280;62512;-46.434;168.382;2022-09-01T02:32:44;102017;;;unknown;60.35
74161;BME280;62512;-46.434;168.382;2022-09-01T02:33:44;102024;;;unknown;60.60
74161;BME280;62512;-46.434;168.382;2022-09-01T02:34:44;102028;;;unknown;61.39
74161;BME280;62512;-46.434;168.382;2022-09-01T02:35:45;102028;;;unknown;61.39
74161;BME280;62512;-46.434;168.382;2022-09-01T02:36:46;102032;;;unknown;61.65
74161;BME280;62512;-46.434;168.382;2022-09-01T02:37:44;102026;;;unknown;61.69
74161;BME280;62512;-46.434;168.382;2022-09-01T02:38:45;102026;;;unknown;61.52
74161;BME280;62512;-46.434;168.382;2022-09-01T02:39:44;102019;;;unknown;61.84
74161;BME280;62512;-46.434;168.382;2022-09-01T02:40:45;102022;;;unknown;61.98
74161;BME280;62512;-46.434;168.382;2022-09-01T02:41:44;102015;;;unknown;62.12
74161;BME280;62512;-46.434;168.382;2022-09-01T02:42:44;102015;;;unknown;61.96
74161;BME280;62512;-46.434;168.382;2022-09-01T02:43:45;102014;;;unknown;62.15
74161;BME280;62512;-46.434;168.382;2022-09-01T02:44:44;102015;;;unknown;62.09
74161;BME280;62512;-46.434;168.382;2022-09-01T02:45:45;102012;;;unknown;62.01
74161;BME280;62512;-46.434;168.382;2022-09-01T02:46:45;102012;;;unknown;61.54
74161;BME280;62512;-46.434;168.382;2022-09-01T02:47:44;102016;;;unknown;61.18
74161;BME280;62512;-46.434;168.382;2022-09-01T02:48:44;102017;;;unknown;61.27
74161;BME280;62512;-46.434;168.382;2022-09-01T02:49:44;102021;;;unknown;61.51
74161;BME280;62512;-46.434;168.382;2022-09-01T02:50:44;102018;;;unknown;61.66
74161;BME280;62512;-46.434;168.382;2022-09-01T02:51:45;102019;;;unknown;61.88
74161;BME280;62512;-46.434;168.382;2022-09-01T02:52:45;102023;;;unknown;62.02
74161;BME280;62512;-46.434;168.382;2022-09-01T02:53:45;102021;;;unknown;62.30
74161;BME280;62512;-46.434;168.382;2022-09-01T02:54:45;102026;;;unknown;62.49
74161;BME280;62512;-46.434;168.382;2022-09-01T02:55:44;102030;;;unknown;62.68
74161;BME280;62512;-46.434;168.382;2022-09-01T02:57:44;102025;;;unknown;62.84
74161;BME280;62512;-46.434;168.382;2022-09-01T02:58:44;102020;;;unknown;63.06
74161;BME280;62512;-46.434;168.382;2022-09-01T02:59:44;102029;;;unknown;63.21
74161;BME280;62512;-46.434;168.382;2022-09-01T03:00:45;102021;;;unknown;63.04
74161;BME280;62512;-46.434;168.382;2022-09-01T03:01:44;102021;;;unknown;63.04
74161;BME280;62512;-46.434;168.382;2022-09-01T03:02:44;102032;;;unknown;63.14
74161;BME280;62512;-46.434;168.382;2022-09-01T03:03:45;102031;;;unknown;63.35
74161;BME280;62512;-46.434;168.382;2022-09-01T03:04:44;102027;;;unknown;63.50
74161;BME280;62512;-46.434;168.382;2022-09-01T03:05:44;102026;;;unknown;63.73
74161;BME280;62512;-46.434;168.382;2022-09-01T03:06:45;102025;;;unknown;63.74
74161;BME280;62512;-46.434;168.382;2022-09-01T03:07:44;102031;;;unknown;64.06
74161;BME280;62512;-46.434;168.382;2022-09-01T03:09:44;102030;;;unknown;64.38
74161;BME280;62512;-46.434;168.382;2022-09-01T03:10:44;102030;;;unknown;64.38
74161;BME280;62512;-46.434;168.382;2022-09-01T03:11:46;102031;;;unknown;64.46
74161;BME280;62512;-46.434;168.382;2022-09-01T03:12:44;102032;;;unknown;64.41
74161;BME280;62512;-46.434;168.382;2022-09-01T03:13:44;102032;;;unknown;64.42
74161;BME280;62512;-46.434;168.382;2022-09-01T03:14:44;102032;;;unknown;64.44
74161;BME280;62512;-46.434;168.382;2022-09-01T03:15:45;102034;;;unknown;64.33
74161;BME280;62512;-46.434;168.382;2022-09-01T03:16:44;102034;;;unknown;64.33
74161;BME280;62512;-46.434;168.382;2022-09-01T03:17:44;102033;;;unknown;64.39
74161;BME280;62512;-46.434;168.382;2022-09-01T03:18:44;102032;;;unknown;64.38
74161;BME280;62512;-46.434;168.382;2022-09-01T03:19:44;102037;;;unknown;64.02
74161;BME280;62512;-46.434;168.382;2022-09-01T03:20:45;102035;;;unknown;63.92
74161;BME280;62512;-46.434;168.382;2022-09-01T03:21:45;102033;;;unknown;63.88
74161;BME280;62512;-46.434;168.382;2022-09-01T03:22:44;102034;;;unknown;63.57
74161;BME280;62512;-46.434;168.382;2022-09-01T03:24:44;102034;;;unknown;64.02
74161;BME280;62512;-46.434;168.382;2022-09-01T03:25:45;102031;;;unknown;63.77
74161;BME280;62512;-46.434;168.382;2022-09-01T03:26:45;102031;;;unknown;63.72
74161;BME280;62512;-46.434;168.382;2022-09-01T03:27:44;102034;;;unknown;63.89
74161;BME280;62512;-46.434;168.382;2022-09-01T03:28:44;102032;;;unknown;63.81
74161;BME280;62512;-46.434;168.382;2022-09-01T03:29:44;102034;;;unknown;64.10
74161;BME280;62512;-46.434;168.382;2022-09-01T03:30:45;102033;;;unknown;64.19
74161;BME280;62512;-46.434;168.382;2022-09-01T03:31:44;102038;;;unknown;64.02
74161;BME280;62512;-46.434;168.382;2022-09-01T03:32:44;102029;;;unknown;64.02
74161;BME280;62512;-46.434;168.382;2022-09-01T03:33:44;102035;;;unknown;64.36
74161;BME280;62512;-46.434;168.382;2022-09-01T03:34:44;102030;;;unknown;64.49
74161;BME280;62512;-46.434;168.382;2022-09-01T03:35:44;102031;;;unknown;64.81
74161;BME280;62512;-46.434;168.382;2022-09-01T03:36:44;102032;;;unknown;64.82
74161;BME280;62512;-46.434;168.382;2022-09-01T03:37:44;102034;;;unknown;64.92
74161;BME280;62512;-46.434;168.382;2022-09-01T03:38:45;102030;;;unknown;65.21
74161;BME280;62512;-46.434;168.382;2022-09-01T03:39:44;102035;;;unknown;65.35
74161;BME280;62512;-46.434;168.382;2022-09-01T03:40:45;102035;;;unknown;65.60
74161;BME280;62512;-46.434;168.382;2022-09-01T03:42:44;102031;;;unknown;65.58
74161;BME280;62512;-46.434;168.382;2022-09-01T03:43:44;102030;;;unknown;65.58
74161;BME280;62512;-46.434;168.382;2022-09-01T03:44:44;102034;;;unknown;65.74
74161;BME280;62512;-46.434;168.382;2022-09-01T03:45:44;102034;;;unknown;65.93
74161;BME280;62512;-46.434;168.382;2022-09-01T03:46:44;102034;;;unknown;66.07
74161;BME280;62512;-46.434;168.382;2022-09-01T03:47:44;102036;;;unknown;65.94
74161;BME280;62512;-46.434;168.382;2022-09-01T03:48:45;102038;;;unknown;66.21
74161;BME280;62512;-46.434;168.382;2022-09-01T03:49:44;102042;;;unknown;66.65
74161;BME280;62512;-46.434;168.382;2022-09-01T03:50:44;102045;;;unknown;67.02
74161;BME280;62512;-46.434;168.382;2022-09-01T03:51:44;102039;;;unknown;67.55
74161;BME280;62512;-46.434;168.382;2022-09-01T03:52:44;102046;;;unknown;67.96
74161;BME280;62512;-46.434;168.382;2022-09-01T03:53:44;102046;;;unknown;67.96
74161;BME280;62512;-46.434;168.382;2022-09-01T03:54:44;102046;;;unknown;68.20
74161;BME280;62512;-46.434;168.382;2022-09-01T03:55:45;102043;;;unknown;68.55
74161;BME280;62512;-46.434;168.382;2022-09-01T03:56:44;102048;;;unknown;68.81
74161;BME280;62512;-46.434;168.382;2022-09-01T03:57:44;102044;;;unknown;69.14
74161;BME280;62512;-46.434;168.382;2022-09-01T03:58:44;102044;;;unknown;69.21
74161;BME280;62512;-46.434;168.382;2022-09-01T03:59:44;102042;;;unknown;69.51
74161;BME280;62512;-46.434;168.382;2022-09-01T04:01:44;102047;;;unknown;69.85
74161;BME280;62512;-46.434;168.382;2022-09-01T04:02:44;102040;;;unknown;70.05
74161;BME280;62512;-46.434;168.382;2022-09-01T04:03:44;102048;;;unknown;70.14
74161;BME280;62512;-46.434;168.382;2022-09-01T04:04:44;102055;;;unknown;70.17
74161;BME280;62512;-46.434;168.382;2022-09-01T04:05:44;102054;;;unknown;70.14
74161;BME280;62512;-46.434;168.382;2022-09-01T04:06:45;102054;;;unknown;70.29
74161;BME280;62512;-46.434;168.382;2022-09-01T04:09:44;102059;;;unknown;70.50
74161;BME280;62512;-46.434;168.382;2022-09-01T04:10:45;102061;;;unknown;70.51
74161;BME280;62512;-46.434;168.382;2022-09-01T04:11:44;102056;;;unknown;70.75
74161;BME280;62512;-46.434;168.382;2022-09-01T04:12:44;102060;;;unknown;71.07
74161;BME280;62512;-46.434;168.382;2022-09-01T04:13:44;102055;;;unknown;71.33
74161;BME280;62512;-46.434;168.382;2022-09-01T04:15:44;102066;;;unknown;71.75
74161;BME280;62512;-46.434;168.382;2022-09-01T04:16:44;102065;;;unknown;71.76
74161;BME280;62512;-46.434;168.382;2022-09-01T04:17:45;102069;;;unknown;71.70
74161;BME280;62512;-46.434;168.382;2022-09-01T04:18:44;102071;;;unknown;71.94
74161;BME280;62512;-46.434;168.382;2022-09-01T04:19:44;102065;;;unknown;72.09
74161;BME280;62512;-46.434;168.382;2022-09-01T04:20:45;102068;;;unknown;72.10
74161;BME280;62512;-46.434;168.382;2022-09-01T04:21:45;102072;;;unknown;72.42
74161;BME280;62512;-46.434;168.382;2022-09-01T04:22:44;102072;;;unknown;72.18
74161;BME280;62512;-46.434;168.382;2022-09-01T04:23:44;102072;;;unknown;72.18
74161;BME280;62512;-46.434;168.382;2022-09-01T04:24:44;102080;;;unknown;72.22
74161;BME280;62512;-46.434;168.382;2022-09-01T04:25:44;102077;;;unknown;72.27
74161;BME280;62512;-46.434;168.382;2022-09-01T04:26:44;102077;;;unknown;72.21
74161;BME280;62512;-46.434;168.382;2022-09-01T04:27:44;102077;;;unknown;72.34
74161;BME280;62512;-46.434;168.382;2022-09-01T04:28:45;102077;;;unknown;72.38
74161;BME280;62512;-46.434;168.382;2022-09-01T04:29:44;102078;;;unknown;72.57
74161;BME280;62512;-46.434;168.382;2022-09-01T04:30:44;102074;;;unknown;72.87
74161;BME280;62512;-46.434;168.382;2022-09-01T04:31:44;102079;;;unknown;72.99
74161;BME280;62512;-46.434;168.382;2022-09-01T04:32:44;102081;;;unknown;73.32
74161;BME280;62512;-46.434;168.382;2022-09-01T04:33:45;102081;;;unknown;73.58
74161;BME280;62512;-46.434;168.382;2022-09-01T04:34:44;102086;;;unknown;73.87
74161;BME280;62512;-46.434;168.382;2022-09-01T04:35:44;102085;;;unknown;74.11
74161;BME280;62512;-46.434;168.382;2022-09-01T04:36:44;102084;;;unknown;74.31
74161;BME280;62512;-46.434;168.382;2022-09-01T04:37:44;102093;;;unknown;74.53
74161;BME280;62512;-46.434;168.382;2022-09-01T04:38:45;102093;;;unknown;74.53
74161;BME280;62512;-46.434;168.382;2022-09-01T04:39:47;102087;;;unknown;74.66
74161;BME280;62512;-46.434;168.382;2022-09-01T04:40:44;102092;;;unknown;74.56
74161;BME280;62512;-46.434;168.382;2022-09-01T04:41:44;102086;;;unknown;74.63
74161;BME280;62512;-46.434;168.382;2022-09-01T04:42:44;102085;;;unknown;74.83
74161;BME280;62512;-46.434;168.382;2022-09-01T04:43:44;102085;;;unknown;74.84
74161;BME280;62512;-46.434;168.382;2022-09-01T04:44:44;102089;;;unknown;74.82
74161;BME280;62512;-46.434;168.382;2022-09-01T04:46:45;102089;;;unknown;75.10
74161;BME280;62512;-46.434;168.382;2022-09-01T04:47:44;102091;;;unknown;75.07
74161;BME280;62512;-46.434;168.382;2022-09-01T04:48:44;102090;;;unknown;75.26
74161;BME280;62512;-46.434;168.382;2022-09-01T04:49:45;102088;;;unknown;75.09
74161;BME280;62512;-46.434;168.382;2022-09-01T04:50:44;102076;;;unknown;75.14
74161;BME280;62512;-46.434;168.382;2022-09-01T04:51:45;102085;;;unknown;75.19
74161;BME280;62512;-46.434;168.382;2022-09-01T04:52:44;102078;;;unknown;75.27
74161;BME280;62512;-46.434;168.382;2022-09-01T04:53:44;102084;;;unknown;75.29
74161;BME280;62512;-46.434;168.382;2022-09-01T04:54:44;102089;;;unknown;75.51
74161;BME280;62512;-46.434;168.382;2022-09-01T04:55:45;102090;;;unknown;75.44
74161;BME280;62512;-46.434;168.382;2022-09-01T04:56:45;102078;;;unknown;75.56
74161;BME280;62512;-46.434;168.382;2022-09-01T04:57:45;102085;;;unknown;75.43
74161;BME280;62512;-46.434;168.382;2022-09-01T04:58:44;102080;;;unknown;75.36
74161;BME280;62512;-46.434;168.382;2022-09-01T05:03:44;102083;;;unknown;75.31
74161;BME280;62512;-46.434;168.382;2022-09-01T05:04:44;102083;;;unknown;75.31
74161;BME280;62512;-46.434;168.382;2022-09-01T05:05:44;102082;;;unknown;75.28
74161;BME280;62512;-46.434;168.382;2022-09-01T05:06:45;102084;;;unknown;75.21
74161;BME280;62512;-46.434;168.382;2022-09-01T05:07:44;102081;;;unknown;75.12
74161;BME280;62512;-46.434;168.382;2022-09-01T05:08:44;102084;;;unknown;75.06
74161;BME280;62512;-46.434;168.382;2022-09-01T05:09:44;102078;;;unknown;75.18
74161;BME280;62512;-46.434;168.382;2022-09-01T05:11:44;102084;;;unknown;75.02
74161;BME280;62512;-46.434;168.382;2022-09-01T05:12:44;102080;;;unknown;74.92
74161;BME280;62512;-46.434;168.382;2022-09-01T05:13:45;102082;;;unknown;74.87
74161;BME280;62512;-46.434;168.382;2022-09-01T05:15:45;102081;;;unknown;74.65
74161;BME280;62512;-46.434;168.382;2022-09-01T05:18:45;102083;;;unknown;74.25
74161;BME280;62512;-46.434;168.382;2022-09-01T05:19:46;102089;;;unknown;74.20
74161;BME280;62512;-46.434;168.382;2022-09-01T05:20:44;102088;;;unknown;74.11
74161;BME280;62512;-46.434;168.382;2022-09-01T05:21:45;102093;;;unknown;73.95
74161;BME280;62512;-46.434;168.382;2022-09-01T05:22:44;102096;;;unknown;73.90
74161;BME280;62512;-46.434;168.382;2022-09-01T05:24:44;102095;;;unknown;72.77
74161;BME280;62512;-46.434;168.382;2022-09-01T05:25:45;102103;;;unknown;72.66
74161;BME280;62512;-46.434;168.382;2022-09-01T05:26:44;102099;;;unknown;72.48
74161;BME280;62512;-46.434;168.382;2022-09-01T05:27:44;102097;;;unknown;72.42
74161;BME280;62512;-46.434;168.382;2022-09-01T05:28:45;102096;;;unknown;72.35
74161;BME280;62512;-46.434;168.382;2022-09-01T05:32:46;102099;;;unknown;72.01
74161;BME280;62512;-46.434;168.382;2022-09-01T05:33:45;102097;;;unknown;71.86
74161;BME280;62512;-46.434;168.382;2022-09-01T05:34:44;102095;;;unknown;71.59
74161;BME280;62512;-46.434;168.382;2022-09-01T05:35:50;102099;;;unknown;71.50
74161;BME280;62512;-46.434;168.382;2022-09-01T05:36:44;102100;;;unknown;71.48
74161;BME280;62512;-46.434;168.382;2022-09-01T05:37:44;102100;;;unknown;71.52